• Join FlightAware (Why Join?)
  • Login
  • US Flag 
02:30PM EDT


 

Airport Tracker/Info


-or-


 

Live Flight TrackerFlight Track Log ✈ AWI3977 ✈ 30-Apr-2012 ✈ CYUL - KCLT

Flight Track Log - Related Links

Times and Time Zones

All times are in EDT time to prevent confusion due to time zone crossing. See the AWI3977 flight status page for this flight to view local times or setup timezone preferences in your user account.

Time Position Orientation Groundspeed Altitude Reporting Facility
EDT Latitude Longitude Course Direction KTS MPH feet Rate Location/Type
05:43PM 45.4407 -73.7409 47° Northeast  Level FlightAware Approximate
05:44PM 45.3528 -73.8148 38° Northeast  Level FlightAware Approximate
05:44PM 45.5000 -73.6500 90° East 190 219 3,600  Level Montreal Center
05:45PM 45.5000 -73.5833 161° South 240 276 4,900 1,440 Climbing Montreal Center
05:46PM 45.4333 -73.5500 221° Southwest 260 299 6,500 1,980 Climbing Montreal Center
05:47PM 45.3667 -73.6333 208° Southwest 270 311 8,900 2,400 Climbing Montreal Center
05:48PM 45.3000 -73.6833 203° Southwest 280 322 11,400 2,700 Climbing Montreal Center
05:49PM 45.2167 -73.7333 208° Southwest 290 334 14,300 2,520 Climbing Montreal Center
05:50PM 45.1500 -73.7833 209° Southwest 300 345 16,500 2,040 Climbing Montreal Center
05:51PM 45.0667 -73.8500 210° Southwest 310 357 18,400 1,440 Climbing Montreal Center
05:52PM 44.9833 -73.9167 210° Southwest 320 368 19,400 1,440 Climbing Montreal Center
05:53PM 44.9000 -73.9833 210° Southwest 340 391 21,300 1,620 Climbing Montreal Center
05:54PM 44.8167 -74.0500 203° Southwest 350 403 22,700 1,260 Climbing Montreal Center
05:55PM 44.7333 -74.1000 205° Southwest 350 403 23,900 120 Climbing Montreal Center
06:03PM 43.9202 -73.9970 209° Southwest  Level FlightAware Approximate
06:04PM 43.8106 -73.9768 209° Southwest  Level FlightAware Approximate
06:05PM 43.7019 -73.9486 210° Southwest  Level FlightAware Approximate
06:06PM 43.5931 -73.9772 210° Southwest  Level FlightAware Approximate
06:07PM 43.4908 -73.9248 211° Southwest  Level FlightAware Approximate
06:08PM 43.3817 -73.8996 212° Southwest  Level FlightAware Approximate
06:09PM 43.2722 -73.8781 213° Southwest  Level FlightAware Approximate
06:10PM 43.1673 -73.9263 213° Southwest  Level FlightAware Approximate
06:11PM 43.0623 -73.9743 213° Southwest  Level FlightAware Approximate
06:12PM 42.9582 -74.0259 213° Southwest  Level FlightAware Approximate
06:13PM 42.8560 -74.0838 214° Southwest  Level FlightAware Approximate
06:14PM 42.7537 -74.1416 214° Southwest  Level FlightAware Approximate
06:15PM 42.6558 -74.2118 214° Southwest  Level FlightAware Approximate
06:16PM 42.5586 -74.2837 214° Southwest  Level FlightAware Approximate
06:17PM 42.4641 -74.3619 214° Southwest  Level FlightAware Approximate
06:18PM 42.3696 -74.4399 214° Southwest  Level FlightAware Approximate
06:19PM 42.2750 -74.5177 214° Southwest  Level FlightAware Approximate
06:20PM 42.1823 -74.5992 214° Southwest  Level FlightAware Approximate
06:21PM 42.0895 -74.6806 214° Southwest  Level FlightAware Approximate
06:22PM 41.9972 -74.7630 214° Southwest  Level FlightAware Approximate
06:23PM 41.9049 -74.8451 214° Southwest  Level FlightAware Approximate
06:24PM 41.8126 -74.9270 214° Southwest  Level FlightAware Approximate
06:25PM 41.7202 -75.0087 214° Southwest  Level FlightAware Approximate
06:26PM 41.6284 -75.0915 214° Southwest  Level FlightAware Approximate
06:27PM 41.5365 -75.1740 214° Southwest  Level FlightAware Approximate
06:28PM 41.4445 -75.2562 213° Southwest  Level FlightAware Approximate
06:29PM 41.3525 -75.3382 213° Southwest  Level FlightAware Approximate
06:30PM 41.2620 -75.4229 213° Southwest  Level FlightAware Approximate
06:31PM 41.1713 -75.5074 213° Southwest  Level FlightAware Approximate
06:32PM 41.0806 -75.5916 213° Southwest  Level FlightAware Approximate
06:33PM 40.9898 -75.6756 213° Southwest  Level FlightAware Approximate
06:34PM 40.8999 -75.7610 213° Southwest  Level FlightAware Approximate
06:35PM 40.8100 -75.8462 213° Southwest  Level FlightAware Approximate
06:36PM 40.7199 -75.9312 212° Southwest  Level FlightAware Approximate
06:37PM 40.6321 -76.0201 212° Southwest  Level FlightAware Approximate
06:38PM 40.5443 -76.1087 212° Southwest  Level FlightAware Approximate
06:39PM 40.4563 -76.1971 212° Southwest  Level FlightAware Approximate
06:40PM 40.3683 -76.2853 211° Southwest  Level FlightAware Approximate
06:41PM 40.2803 -76.3733 211° Southwest  Level FlightAware Approximate
06:42PM 40.1921 -76.4610 211° Southwest  Level FlightAware Approximate
06:43PM 40.1039 -76.5485 210° Southwest  Level FlightAware Approximate
06:44PM 40.0153 -76.6351 210° Southwest  Level FlightAware Approximate
06:45PM 39.9266 -76.7215 209° Southwest  Level FlightAware Approximate
06:46PM 39.8376 -76.8073 209° Southwest  Level FlightAware Approximate
06:47PM 39.7486 -76.8929 208° Southwest  Level FlightAware Approximate
06:48PM 39.6596 -76.9783 208° Southwest  Level FlightAware Approximate
06:49PM 39.5704 -77.0635 207° Southwest  Level FlightAware Approximate
06:50PM 39.4812 -77.1485 206° Southwest  Level FlightAware Approximate
06:51PM 39.3920 -77.2333 205° Southwest  Level FlightAware Approximate
06:52PM 39.3026 -77.3177 204° Southwest  Level FlightAware Approximate
06:53PM 39.2132 -77.4019 202° Southwest  Level FlightAware Approximate
06:54PM 39.1237 -77.4859 201° Southwest  Level FlightAware Approximate
06:55PM 39.0340 -77.5695 199° South  Level FlightAware Approximate
06:56PM 38.9443 -77.6529 196° South  Level FlightAware Approximate
06:57PM 38.8546 -77.7363 192° South  Level FlightAware Approximate
06:58PM 38.7649 -77.8195 187° South  Level FlightAware Approximate
06:59PM 38.6752 -77.9026 179° South  Level FlightAware Approximate
07:00PM 38.5854 -77.9854 166° South  Level FlightAware Approximate
07:01PM 38.4955 -78.0680 147° Southeast  Level FlightAware Approximate
07:02PM 38.4054 -78.1501 121° Southeast  Level FlightAware Approximate
07:03PM 38.3153 -78.2321 97° East  Level FlightAware Approximate
07:04PM 38.2251 -78.3138 80° East  Level FlightAware Approximate
07:05PM 38.1352 -78.3958 69° East  Level FlightAware Approximate
07:05PM 38.2825 -77.8903 222° Southwest 396 456 32,000  Level Washington Center
07:09PM 37.9686 -78.2469 221° Southwest 382 440 32,000  Level Washington Center
07:11PM 37.8083 -78.4225 220° Southwest 382 440 32,000  Level Washington Center
07:12PM 37.7183 -78.5192 221° Southwest 382 440 32,000  Level Washington Center
07:13PM 37.6392 -78.6050 221° Southwest 382 440 32,000  Level Washington Center
07:14PM 37.5575 -78.6936 221° Southwest 387 445 32,000  Level Washington Center
07:15PM 37.4758 -78.7819 220° Southwest 387 445 32,000  Level Washington Center
07:16PM 37.3944 -78.8672 220° Southwest 387 445 32,000  Level Washington Center
07:17PM 37.3214 -78.9450 220° Southwest 387 445 32,000  Level Washington Center
07:18PM 37.2394 -79.0328 220° Southwest 387 445 32,000  Level Washington Center
07:19PM 37.1578 -79.1178 220° Southwest 387 445 32,000  Level Washington Center
07:20PM 37.0758 -79.2053 220° Southwest 387 445 32,000  Level Washington Center
07:21PM 36.9919 -79.2922 221° Southwest 387 445 32,000  Level Washington Center
07:22PM 36.9033 -79.3894 220° Southwest 387 445 32,000  Level Washington Center
07:23PM 36.8233 -79.4736 220° Southwest 387 445 32,000  Level Washington Center
07:24PM 36.7392 -79.5628 220° Southwest 393 452 32,000 -1,500 Level Washington Center
07:27PM 36.5025 -79.8056 222° Southwest 381 438 26,100 -2,040 Descending Atlanta Center
07:28PM 36.4303 -79.8869 219° Southwest 371 427 24,100 -1,980 Descending Atlanta Center
07:29PM 36.3575 -79.9603 217° Southwest 344 396 22,200 -1,080 Descending Atlanta Center
07:30PM 36.2847 -80.0283 214° Southwest 333 383 22,000 -120 Descending Atlanta Center
07:31PM 36.1994 -80.0994 216° Southwest 333 383 22,000 -540 Level Atlanta Center
07:32PM 36.1264 -80.1647 213° Southwest 338 389 21,000 -1,500 Descending Atlanta Center
07:33PM 36.0492 -80.2275 216° Southwest 333 383 19,000 -1,920 Descending Atlanta Center
07:34PM 35.9822 -80.2872 217° Southwest 321 369 17,200 -1,920 Descending Atlanta Center
07:35PM 35.9153 -80.3492 214° Southwest 315 362 15,200 -1,920 Descending Atlanta Center
07:36PM 35.8542 -80.4006 216° Southwest 287 330 13,600 -1,620 Descending Atlanta Center
07:37PM 35.7992 -80.4492 214° Southwest 277 319 12,300 -1,320 Descending Atlanta Center
07:38PM 35.7319 -80.5058 213° Southwest 272 313 11,100 -840 Descending Atlanta Center
07:39PM 35.6708 -80.5544 207° Southwest 268 308 10,700 -900 Descending Atlanta Center
07:40PM 35.6053 -80.5956 209° Southwest 267 307 9,300 -1,380 Descending Atlanta Center
07:41PM 35.5336 -80.6447 209° Southwest 269 310 7,900 -1,320 Descending Atlanta Center
07:42PM 35.4742 -80.6853 208° Southwest 269 310 6,700 -1,320 Descending Atlanta Center
07:43PM 35.4128 -80.7261 210° Southwest 258 297 5,300 -1,320 Descending Atlanta Center
07:44PM 35.3514 -80.7692 210° Southwest 258 297 4,000 -1,320 Descending Atlanta Center